createdAt,value
2022-08-10T00:01:53.081Z,25.00
2022-08-10T00:04:23.057Z,25.00
2022-08-10T00:06:53.435Z,25.00
2022-08-10T00:09:22.615Z,25.00
2022-08-10T00:11:52.473Z,24.90
2022-08-10T00:14:20.769Z,24.90
2022-08-10T00:16:50.174Z,24.90
2022-08-10T00:19:19.463Z,24.80
2022-08-10T00:22:07.758Z,24.80
2022-08-10T00:24:40.216Z,24.80
2022-08-10T00:28:02.005Z,24.70
2022-08-10T00:30:04.065Z,24.70
2022-08-10T00:32:33.521Z,24.60
2022-08-10T00:35:03.083Z,24.60
2022-08-10T00:37:32.620Z,24.60
2022-08-10T00:40:02.167Z,24.60
2022-08-10T00:42:33.328Z,24.50
2022-08-10T00:45:03.761Z,24.50
2022-08-10T00:47:36.963Z,24.50
2022-08-10T00:50:08.901Z,24.50
2022-08-10T00:52:41.603Z,24.40
2022-08-10T00:55:11.081Z,24.40
2022-08-10T00:57:43.334Z,24.40
2022-08-10T01:00:13.926Z,24.40
2022-08-10T01:02:46.402Z,24.30
2022-08-10T01:05:20.837Z,24.30
2022-08-10T01:08:16.622Z,24.20
2022-08-10T01:11:03.153Z,24.20
2022-08-10T01:13:42.604Z,24.20
2022-08-10T01:16:22.900Z,24.10
2022-08-10T01:19:00.810Z,24.10
2022-08-10T01:22:19.163Z,24.00
2022-08-10T01:26:12.582Z,24.00
2022-08-10T01:28:50.065Z,23.90
2022-08-10T01:31:24.791Z,23.90
2022-08-10T01:34:02.602Z,23.90
2022-08-10T01:36:36.403Z,23.90
2022-08-10T01:39:08.262Z,23.90
2022-08-10T01:41:46.782Z,23.80
2022-08-10T01:44:20.482Z,23.80
2022-08-10T01:46:56.760Z,23.80
2022-08-10T01:49:26.803Z,23.80
2022-08-10T01:52:01.579Z,23.80
2022-08-10T01:54:31.887Z,23.80
2022-08-10T01:57:02.515Z,23.70
2022-08-10T01:59:37.631Z,23.70
2022-08-10T02:02:12.780Z,23.70
2022-08-10T02:04:46.806Z,23.70
2022-08-10T02:07:19.201Z,23.60
2022-08-10T02:09:52.084Z,23.60
2022-08-10T02:12:32.214Z,23.60
2022-08-10T02:15:05.016Z,23.60
2022-08-10T02:17:58.612Z,23.50
2022-08-10T02:20:34.646Z,23.50
2022-08-10T02:23:08.444Z,23.50
2022-08-10T02:25:41.366Z,23.50
2022-08-10T02:28:30.494Z,23.40
2022-08-10T02:31:10.394Z,23.40
2022-08-10T02:33:57.348Z,23.40
2022-08-10T02:36:33.811Z,23.30
2022-08-10T02:39:05.714Z,23.30
2022-08-10T02:45:01.046Z,23.30
2022-08-10T02:45:19.190Z,23.30
2022-08-10T02:47:50.977Z,23.20
2022-08-10T02:50:28.730Z,23.20
2022-08-10T02:53:05.409Z,23.20
2022-08-10T02:55:48.893Z,23.20
2022-08-10T02:58:29.144Z,23.10
2022-08-10T03:01:00.372Z,23.20
2022-08-10T03:03:36.499Z,23.10
2022-08-10T03:06:15.002Z,23.10
2022-08-10T03:08:46.106Z,23.10
2022-08-10T03:12:35.660Z,23.10
2022-08-10T03:14:12.922Z,23.00
2022-08-10T03:16:42.805Z,23.00
2022-08-10T03:20:35.453Z,23.00
2022-08-10T03:22:03.755Z,23.00
2022-08-10T03:24:33.700Z,23.00
2022-08-10T03:27:02.719Z,23.00
2022-08-10T03:30:28.459Z,22.90
2022-08-10T03:32:25.532Z,22.90
2022-08-10T03:34:54.088Z,22.90
2022-08-10T03:37:23.365Z,22.90
2022-08-10T03:39:52.689Z,22.90
2022-08-10T03:42:23.475Z,22.80
2022-08-10T03:44:53.983Z,22.80
2022-08-10T03:47:25.421Z,22.80
2022-08-10T03:49:56.998Z,22.80
2022-08-10T03:52:28.046Z,22.80
2022-08-10T03:54:56.339Z,22.80
2022-08-10T03:57:26.195Z,22.70
2022-08-10T03:59:54.301Z,22.70
2022-08-10T04:02:45.905Z,22.70
2022-08-10T04:05:10.772Z,22.70
2022-08-10T04:07:40.519Z,22.70
2022-08-10T04:10:13.115Z,22.60
2022-08-10T04:12:41.429Z,22.60
2022-08-10T04:15:10.611Z,22.60
2022-08-10T04:18:00.162Z,22.60
2022-08-10T04:20:34.370Z,22.50
2022-08-10T04:23:09.964Z,22.50
2022-08-10T04:25:40.901Z,22.50
2022-08-10T04:28:10.915Z,22.50
2022-08-10T04:30:41.774Z,22.50
2022-08-10T04:33:12.087Z,22.50
2022-08-10T04:35:40.997Z,22.50
2022-08-10T04:38:12.807Z,22.50
2022-08-10T04:40:41.449Z,22.50
2022-08-10T04:43:13.505Z,22.50
2022-08-10T04:45:47.837Z,22.40
2022-08-10T04:48:41.634Z,22.40
2022-08-10T04:51:17.215Z,22.40
2022-08-10T04:54:03.846Z,22.40
2022-08-10T04:56:37.757Z,22.40
2022-08-10T04:59:08.405Z,22.40
2022-08-10T05:02:30.473Z,22.40
2022-08-10T05:04:35.842Z,22.40
2022-08-10T05:07:09.396Z,22.40
2022-08-10T05:10:00.359Z,22.50
2022-08-10T05:12:28.205Z,22.50
2022-08-10T05:14:56.325Z,22.50
2022-08-10T05:17:24.874Z,22.50
2022-08-10T05:20:01.577Z,22.60
2022-08-10T05:22:33.861Z,22.60
2022-08-10T05:25:03.125Z,22.60
2022-08-10T05:27:31.021Z,22.60
2022-08-10T05:30:01.367Z,22.70
2022-08-10T05:32:31.421Z,22.70
2022-08-10T05:34:59.700Z,22.80
2022-08-10T05:38:09.765Z,22.80
2022-08-10T05:40:20.025Z,22.90
2022-08-10T05:42:47.945Z,23.00
2022-08-10T05:45:22.604Z,23.00
2022-08-10T05:48:54.290Z,23.10
2022-08-10T05:50:38.922Z,23.20
2022-08-10T05:54:02.530Z,23.30
2022-08-10T05:55:56.552Z,23.30
2022-08-10T05:58:24.732Z,23.40
2022-08-10T06:00:58.053Z,23.50
2022-08-10T06:03:33.267Z,23.60
2022-08-10T06:06:05.132Z,23.70
2022-08-10T06:08:36.378Z,23.80
2022-08-10T06:12:28.114Z,23.90
2022-08-10T06:14:18.509Z,24.00
2022-08-10T06:16:48.392Z,24.10
2022-08-10T06:19:17.498Z,24.20
2022-08-10T06:21:53.740Z,24.40
2022-08-10T06:24:31.119Z,24.50
2022-08-10T06:27:01.201Z,24.70
2022-08-10T06:29:34.692Z,24.80
2022-08-10T06:32:05.835Z,25.00
2022-08-10T06:34:44.200Z,25.10
2022-08-10T06:37:15.215Z,25.30
2022-08-10T06:39:45.017Z,25.50
2022-08-10T06:42:18.644Z,25.60
2022-08-10T06:44:59.298Z,25.80
2022-08-10T06:47:35.874Z,26.00
2022-08-10T06:50:13.553Z,26.20
2022-08-10T06:52:43.485Z,26.40
2022-08-10T06:55:16.886Z,26.50
2022-08-10T06:57:59.683Z,26.70
2022-08-10T07:00:34.219Z,26.80
2022-08-10T07:03:15.276Z,26.90
2022-08-10T07:05:51.360Z,27.00
2022-08-10T07:08:23.878Z,27.20
2022-08-10T07:10:54.221Z,27.30
2022-08-10T07:14:17.434Z,27.30
2022-08-10T07:16:14.587Z,27.40
2022-08-10T07:18:45.348Z,27.50
2022-08-10T07:21:15.795Z,27.60
2022-08-10T07:23:58.843Z,27.70
2022-08-10T07:26:31.551Z,27.90
2022-08-10T07:29:03.092Z,28.00
2022-08-10T07:31:56.041Z,28.10
2022-08-10T07:34:29.699Z,28.20
2022-08-10T07:37:02.972Z,28.40
2022-08-10T07:40:03.051Z,28.50
2022-08-10T07:42:28.200Z,28.70
2022-08-10T07:45:02.791Z,28.80
2022-08-10T07:47:53.956Z,29.00
2022-08-10T07:50:26.535Z,29.20
2022-08-10T07:52:59.457Z,29.30
2022-08-10T07:56:01.579Z,29.50
2022-08-10T07:58:19.484Z,29.70
2022-08-10T08:00:52.626Z,29.80
2022-08-10T08:03:25.726Z,30.00
2022-08-10T08:06:02.821Z,30.20
2022-08-10T08:08:36.221Z,30.40
2022-08-10T08:11:06.060Z,30.60
2022-08-10T08:13:38.194Z,30.70
2022-08-10T08:16:20.731Z,30.80
2022-08-10T08:19:25.563Z,30.90
2022-08-10T08:24:07.954Z,31.10
2022-08-10T08:24:36.473Z,31.20
2022-08-10T08:27:07.656Z,31.30
2022-08-10T08:29:40.026Z,31.40
2022-08-10T08:32:11.519Z,31.50
2022-08-10T08:34:44.269Z,31.60
2022-08-10T08:38:29.605Z,31.70
2022-08-10T08:40:09.731Z,31.90
2022-08-10T08:43:15.089Z,31.90
2022-08-10T08:46:19.261Z,32.00
2022-08-10T08:50:04.514Z,32.10
2022-08-10T08:52:35.231Z,32.10
2022-08-10T08:56:04.945Z,32.20
2022-08-10T08:59:00.797Z,32.20
2022-08-10T09:01:48.954Z,32.20
2022-08-10T09:05:01.317Z,32.20
2022-08-10T09:08:00.350Z,32.20
2022-08-10T09:10:46.209Z,32.20
2022-08-10T09:13:27.002Z,32.20
2022-08-10T09:16:09.649Z,32.20
2022-08-10T09:18:48.591Z,32.20
2022-08-10T09:21:29.101Z,32.10
2022-08-10T09:24:06.646Z,32.10
2022-08-10T09:26:49.473Z,32.00
2022-08-10T09:29:27.443Z,31.90
2022-08-10T09:36:13.944Z,31.90
2022-08-10T09:36:26.376Z,31.80
2022-08-10T09:38:12.499Z,31.60
2022-08-10T09:40:59.626Z,31.60
2022-08-10T09:43:44.480Z,31.50
2022-08-10T09:46:30.727Z,31.40
2022-08-10T09:49:16.503Z,31.40
2022-08-10T09:52:02.874Z,31.30
2022-08-10T09:54:52.136Z,31.20
2022-08-10T09:57:44.292Z,31.20
2022-08-10T10:00:20.266Z,31.10
2022-08-10T10:03:11.666Z,31.00
2022-08-10T10:05:57.331Z,31.00
2022-08-10T10:08:33.286Z,30.90
2022-08-10T10:11:20.637Z,30.90
2022-08-10T10:14:11.864Z,30.80
2022-08-10T10:16:58.127Z,30.80
2022-08-10T10:19:45.127Z,30.70
2022-08-10T10:22:39.268Z,30.60
2022-08-10T10:25:19.992Z,30.60
2022-08-10T10:28:03.601Z,30.60
2022-08-10T10:30:44.080Z,30.50
2022-08-10T10:33:21.814Z,30.50
2022-08-10T10:35:55.858Z,30.50
2022-08-10T10:38:30.923Z,30.40
2022-08-10T10:41:09.122Z,30.40
2022-08-10T10:44:01.011Z,30.30
2022-08-10T10:46:52.275Z,30.30
2022-08-10T10:49:36.825Z,30.30
2022-08-10T10:52:26.134Z,30.20
2022-08-10T10:55:14.161Z,30.20
2022-08-10T10:58:01.060Z,30.20
2022-08-10T11:00:44.763Z,30.10
2022-08-10T11:03:51.637Z,30.10
2022-08-10T11:06:40.434Z,30.10
2022-08-10T11:10:05.229Z,30.10
2022-08-10T11:12:26.123Z,30.00
2022-08-10T11:15:05.484Z,30.00
2022-08-10T11:17:45.401Z,30.00
2022-08-10T11:20:23.350Z,30.00
2022-08-10T11:23:05.013Z,30.00
2022-08-10T11:25:39.450Z,30.00
2022-08-10T11:28:15.576Z,29.90
2022-08-10T11:30:51.081Z,29.90
2022-08-10T11:33:32.948Z,29.90
2022-08-10T11:36:10.023Z,29.90
2022-08-10T11:39:13.569Z,29.90
2022-08-10T11:42:09.034Z,29.90
2022-08-10T11:44:50.108Z,29.90
2022-08-10T11:47:23.264Z,29.90
2022-08-10T11:50:04.441Z,29.80
2022-08-10T11:52:52.889Z,29.80
2022-08-10T11:55:24.333Z,29.80
2022-08-10T11:57:56.921Z,29.80
2022-08-10T12:00:32.360Z,29.80
2022-08-10T12:03:06.936Z,29.80
2022-08-10T12:05:53.075Z,29.80
2022-08-10T12:10:06.684Z,29.80
2022-08-10T12:11:24.647Z,29.80
2022-08-10T12:16:53.475Z,29.80
2022-08-10T12:19:28.991Z,29.80
2022-08-10T12:22:06.491Z,29.80
2022-08-10T12:24:41.578Z,29.80
2022-08-10T12:27:17.302Z,29.80
2022-08-10T12:29:54.460Z,29.80
2022-08-10T12:32:36.072Z,29.80
2022-08-10T12:35:22.063Z,29.80
2022-08-10T12:38:08.474Z,29.80
2022-08-10T12:40:44.355Z,29.80
2022-08-10T12:44:05.614Z,29.80
2022-08-10T12:46:16.636Z,29.80
2022-08-10T12:48:57.910Z,29.80
2022-08-10T12:51:32.468Z,29.80
2022-08-10T12:54:11.444Z,29.80
2022-08-10T12:56:46.462Z,29.80
2022-08-10T12:59:16.693Z,29.80
2022-08-10T13:02:07.927Z,29.90
2022-08-10T13:04:42.743Z,29.90
2022-08-10T13:08:24.123Z,29.90
2022-08-10T13:10:06.751Z,29.90
2022-08-10T13:12:40.548Z,29.90
2022-08-10T13:15:45.621Z,29.90
2022-08-10T13:18:18.954Z,29.90
2022-08-10T13:20:53.076Z,29.80
2022-08-10T13:23:26.860Z,29.80
2022-08-10T13:26:00.291Z,29.80
2022-08-10T13:28:45.598Z,29.80
2022-08-10T13:31:21.292Z,29.80
2022-08-10T13:34:42.133Z,29.80
2022-08-10T13:37:11.117Z,29.80
2022-08-10T13:39:58.471Z,29.90
2022-08-10T13:42:34.832Z,29.80
2022-08-10T13:45:10.788Z,29.90
2022-08-10T13:47:48.839Z,29.90
2022-08-10T13:50:33.579Z,29.90
2022-08-10T13:53:11.654Z,29.90
2022-08-10T13:55:55.499Z,29.90
2022-08-10T13:58:33.374Z,29.90
2022-08-10T14:01:11.020Z,29.90
2022-08-10T14:03:43.823Z,30.00
2022-08-10T14:06:15.271Z,30.00
2022-08-10T14:08:51.214Z,30.00
2022-08-10T14:11:22.821Z,30.00
2022-08-10T14:13:58.294Z,30.00
2022-08-10T14:16:27.853Z,30.00
2022-08-10T14:19:00.504Z,30.00
2022-08-10T14:21:29.504Z,30.00
2022-08-10T14:23:58.260Z,30.00
2022-08-10T14:26:30.770Z,30.00
2022-08-10T14:29:08.859Z,30.00
2022-08-10T14:31:40.813Z,30.00
2022-08-10T14:36:05.065Z,30.00
2022-08-10T14:37:34.990Z,30.00
2022-08-10T14:40:11.802Z,30.00
2022-08-10T14:42:51.266Z,30.00
2022-08-10T14:45:28.772Z,30.00
2022-08-10T14:48:06.378Z,30.00
2022-08-10T14:50:36.738Z,30.10
2022-08-10T14:53:10.186Z,30.10
2022-08-10T14:55:58.381Z,30.10
2022-08-10T14:58:33.819Z,30.10
2022-08-10T15:01:06.875Z,30.10
2022-08-10T15:03:58.641Z,30.10
2022-08-10T15:06:32.783Z,30.10
2022-08-10T15:09:12.606Z,30.10
2022-08-10T15:12:13.388Z,30.10
2022-08-10T15:14:42.456Z,30.10
2022-08-10T15:17:26.683Z,30.10
2022-08-10T15:20:03.097Z,30.10
2022-08-10T15:22:38.010Z,30.10
2022-08-10T15:25:18.181Z,30.10
2022-08-10T15:27:54.677Z,30.10
2022-08-10T15:30:31.414Z,30.10
2022-08-10T15:34:03.613Z,30.10
2022-08-10T15:36:35.930Z,30.10
2022-08-10T15:39:17.225Z,30.10
2022-08-10T15:42:05.342Z,30.10
2022-08-10T15:44:39.412Z,30.10
2022-08-10T15:47:15.459Z,30.10
2022-08-10T15:49:55.621Z,30.00
2022-08-10T15:52:39.375Z,30.10
2022-08-10T15:55:41.466Z,30.10
2022-08-10T15:58:37.576Z,30.10
2022-08-10T16:02:13.690Z,30.10
2022-08-10T16:04:09.032Z,30.00
2022-08-10T16:06:44.425Z,30.00
2022-08-10T16:10:22.014Z,30.00
2022-08-10T16:12:15.725Z,30.00
2022-08-10T16:14:50.073Z,30.10
2022-08-10T16:17:21.681Z,30.10
2022-08-10T16:19:53.533Z,30.10
2022-08-10T16:22:36.341Z,30.00
2022-08-10T16:25:15.057Z,30.00
2022-08-10T16:27:45.649Z,30.10
2022-08-10T16:30:15.365Z,30.10
2022-08-10T16:32:44.940Z,30.10
2022-08-10T16:35:19.959Z,30.00
2022-08-10T16:37:57.216Z,30.00
2022-08-10T16:40:30.028Z,30.00
2022-08-10T16:43:02.259Z,30.00
2022-08-10T16:45:35.761Z,30.00
2022-08-10T16:48:06.870Z,30.00
2022-08-10T16:50:41.676Z,30.00
2022-08-10T16:53:15.251Z,30.00
2022-08-10T16:55:50.946Z,29.90
2022-08-10T16:58:25.253Z,30.00
2022-08-10T17:00:54.570Z,30.00
2022-08-10T17:04:08.145Z,29.90
2022-08-10T17:06:24.405Z,29.90
2022-08-10T17:08:57.629Z,29.90
2022-08-10T17:11:41.375Z,29.90
2022-08-10T17:14:10.698Z,29.90
2022-08-10T17:16:43.983Z,29.90
2022-08-10T17:19:16.472Z,29.90
2022-08-10T17:21:52.304Z,29.80
2022-08-10T17:24:29.241Z,29.80
2022-08-10T17:27:01.492Z,29.80
2022-08-10T17:30:03.070Z,29.80
2022-08-10T17:32:44.295Z,29.80
2022-08-10T17:35:23.241Z,29.80
2022-08-10T17:37:57.996Z,29.80
2022-08-10T17:40:30.725Z,29.80
2022-08-10T17:43:02.503Z,29.80
2022-08-10T17:45:46.238Z,29.80
2022-08-10T17:48:21.123Z,29.80
2022-08-10T17:50:53.021Z,29.70
2022-08-10T17:53:28.528Z,29.70
2022-08-10T17:56:01.385Z,29.70
2022-08-10T17:58:31.630Z,29.70
2022-08-10T18:01:40.340Z,29.70
2022-08-10T18:03:56.549Z,29.70
2022-08-10T18:06:25.577Z,29.70
2022-08-10T18:08:59.282Z,29.60
2022-08-10T18:11:33.176Z,29.60
2022-08-10T18:14:07.358Z,29.60
2022-08-10T18:16:38.937Z,29.60
2022-08-10T18:19:12.595Z,29.60
2022-08-10T18:21:43.189Z,29.60
2022-08-10T18:24:16.762Z,29.60
2022-08-10T18:26:50.409Z,29.50
2022-08-10T18:29:22.928Z,29.50
2022-08-10T18:31:59.532Z,29.50
2022-08-10T18:34:30.690Z,29.50
2022-08-10T18:36:59.980Z,29.50
2022-08-10T18:39:33.058Z,29.40
2022-08-10T18:42:11.608Z,29.40
2022-08-10T18:44:48.194Z,29.40
2022-08-10T18:47:22.650Z,29.40
2022-08-10T18:50:01.203Z,29.30
2022-08-10T18:52:34.797Z,29.30
2022-08-10T18:55:23.150Z,29.30
2022-08-10T18:58:46.407Z,29.20
2022-08-10T19:01:38.974Z,29.20
2022-08-10T19:04:44.435Z,29.10
2022-08-10T19:07:54.537Z,29.10
2022-08-10T19:10:40.875Z,29.00
2022-08-10T19:13:22.675Z,29.00
2022-08-10T19:16:04.496Z,29.00
2022-08-10T19:18:38.281Z,29.00
2022-08-10T19:21:18.088Z,28.90
2022-08-10T19:24:01.617Z,28.90
2022-08-10T19:26:45.958Z,28.90
2022-08-10T19:30:08.605Z,28.80
2022-08-10T19:32:53.239Z,28.80
2022-08-10T19:36:03.803Z,28.70
2022-08-10T19:38:37.102Z,28.70
2022-08-10T19:41:31.991Z,28.60
2022-08-10T19:44:16.097Z,28.60
2022-08-10T19:46:52.849Z,28.60
2022-08-10T19:49:39.800Z,28.50
2022-08-10T19:52:22.503Z,28.50
2022-08-10T19:55:03.360Z,28.50
2022-08-10T19:57:39.700Z,28.40
2022-08-10T20:00:18.777Z,28.40
2022-08-10T20:03:01.134Z,28.40
2022-08-10T20:05:36.391Z,28.30
2022-08-10T20:08:19.114Z,28.30
2022-08-10T20:10:59.363Z,28.30
2022-08-10T20:13:38.354Z,28.20
2022-08-10T20:16:15.059Z,28.20
2022-08-10T20:18:49.614Z,28.20
2022-08-10T20:21:26.292Z,28.10
2022-08-10T20:24:00.542Z,28.10
2022-08-10T20:26:36.155Z,28.10
2022-08-10T20:29:16.554Z,28.00
2022-08-10T20:32:08.084Z,28.00
2022-08-10T20:34:44.308Z,27.90
2022-08-10T20:37:43.478Z,27.90
2022-08-10T20:40:21.794Z,27.90
2022-08-10T20:43:13.431Z,27.80
2022-08-10T20:46:07.431Z,27.80
2022-08-10T20:48:44.514Z,27.80
2022-08-10T20:51:19.353Z,27.70
2022-08-10T20:53:56.331Z,27.70
2022-08-10T20:56:43.284Z,27.60
2022-08-10T21:00:04.185Z,27.60
2022-08-10T21:02:54.644Z,27.50
2022-08-10T21:05:34.430Z,27.50
2022-08-10T21:08:17.635Z,27.50
2022-08-10T21:11:05.945Z,27.40
2022-08-10T21:13:54.468Z,27.40
2022-08-10T21:16:52.492Z,27.30
2022-08-10T21:20:08.025Z,27.30
2022-08-10T21:22:42.137Z,27.30
2022-08-10T21:25:20.167Z,27.20
2022-08-10T21:28:29.080Z,27.20
2022-08-10T21:31:24.136Z,27.10
2022-08-10T21:34:18.963Z,27.10
2022-08-10T21:36:58.692Z,27.10
2022-08-10T21:39:50.833Z,27.00
2022-08-10T21:42:53.608Z,27.00
2022-08-10T21:46:00.308Z,27.00
2022-08-10T21:49:07.991Z,26.90
2022-08-10T21:52:05.241Z,26.90
2022-08-10T21:55:02.302Z,26.80
2022-08-10T21:58:06.665Z,26.80
2022-08-10T22:01:03.620Z,26.80
2022-08-10T22:03:58.055Z,26.70
2022-08-10T22:06:52.242Z,26.70
2022-08-10T22:09:44.861Z,26.60
2022-08-10T22:12:35.869Z,26.60
2022-08-10T22:16:03.214Z,26.60
2022-08-10T22:19:01.423Z,26.50
2022-08-10T22:22:02.065Z,26.50
2022-08-10T22:25:17.038Z,26.40
2022-08-10T22:28:07.066Z,26.40
2022-08-10T22:31:29.627Z,26.40
2022-08-10T22:34:33.616Z,26.30
2022-08-10T22:37:42.064Z,26.20
2022-08-10T22:40:35.818Z,26.20
2022-08-10T22:43:35.317Z,26.20
2022-08-10T22:46:30.623Z,26.20
2022-08-10T22:49:02.394Z,26.20
2022-08-10T22:51:44.384Z,26.10
2022-08-10T22:54:41.262Z,26.10
2022-08-10T22:57:32.899Z,26.10
2022-08-10T23:00:14.920Z,26.00
2022-08-10T23:02:52.791Z,26.00
2022-08-10T23:05:33.474Z,26.00
2022-08-10T23:08:10.755Z,25.90
2022-08-10T23:10:50.747Z,25.90
2022-08-10T23:13:36.241Z,25.90
2022-08-10T23:16:29.782Z,25.90
2022-08-10T23:19:11.299Z,25.80
2022-08-10T23:22:04.213Z,25.80
2022-08-10T23:24:40.435Z,25.80
2022-08-10T23:27:13.227Z,25.80
2022-08-10T23:30:09.311Z,25.70
2022-08-10T23:32:43.556Z,25.70
2022-08-10T23:36:29.875Z,25.70
2022-08-10T23:38:07.859Z,25.60
2022-08-10T23:40:37.427Z,25.60
2022-08-10T23:43:07.562Z,25.60
2022-08-10T23:45:53.792Z,25.60
2022-08-10T23:48:30.481Z,25.50
2022-08-10T23:51:03.719Z,25.50
2022-08-10T23:53:49.484Z,25.50
2022-08-10T23:56:22.566Z,25.40
2022-08-10T23:58:55.626Z,25.40
